Nibulon 1 — UUAS4 — position and weather

sailwx.info

Track history (hours):
 
Tides and Currents Weather Stations Pressure Air Temp Water Temp Dewpoint Dewpoint Depression Visibility Wind Speed Wind Dir Waves Ship Positions

Nibulon 1

Last reported at 2016-May-01 10:16 UTC. Time now 2016-May-01 11:47 UTC.
Position N 48°03' E 035°06'.

Length 38 m; draft 2.6 m.

Type: Tug. MMSI: 272641000.

Date/timePositionNaut miles runAvg speedWind from/ knotsBaromVisibWave heightAir tempDewpointWater temp
2016-May-01 10:16N 48°03' E 035°06'4 5.1
2016-May-01 09:33N 47°59' E 035°08'5 5.4
2016-May-01 08:33N 47°54' E 035°06'2 2.3
2016-May-01 07:33N 47°52' E 035°05'2 2.2
2016-May-01 06:33N 47°50' E 035°07'1 0.7
2016-May-01 05:33N 47°50' E 035°06'2 2.2
2016-May-01 04:33N 47°52' E 035°06'1 0.8
2016-May-01 03:33N 47°52' E 035°05'4 4.4
2016-May-01 02:33N 47°48' E 035°09'0 0.0
2016-May-01 01:33N 47°48' E 035°09'0 0.0
2016-May-01 00:33N 47°48' E 035°09'0 0.0
2016-Apr-30 23:33N 47°48' E 035°09'0 0.0
2016-Apr-30 22:33N 47°48' E 035°09'0 0.0
2016-Apr-30 21:33N 47°48' E 035°09'0 0.0
2016-Apr-30 20:33N 47°48' E 035°09'0 0.0
2016-Apr-30 19:33N 47°48' E 035°09'0 0.0
2016-Apr-30 18:33N 47°48' E 035°09'0 0.0
2016-Apr-30 17:33N 47°48' E 035°09'0 0.2
2016-Apr-30 16:33N 47°48' E 035°10'0 0.0
2016-Apr-30 15:33N 47°48' E 035°10'1 0.9
2016-Apr-30 14:33N 47°48' E 035°10'4 4.5
2016-Apr-30 13:33N 47°43' E 035°09'5 4.7
2016-Apr-30 12:33N 47°39' E 035°06'5 4.8
2016-Apr-30 11:33N 47°35' E 035°02'8 5.2
2016-Apr-30 10:04N 47°32' E 034°51'3 5.4
2016-Apr-30 09:33N 47°31' E 034°48'11 5.2
2016-Apr-30 07:23N 47°35' E 034°32'9 5.1
2016-Apr-30 05:33N 47°32' E 034°18'6 5.6
2016-Apr-30 04:26N 47°28' E 034°10'86 3.2
2016-Apr-29 01:22N 46°35' E 032°30'5 4.6
2016-Apr-29 00:14N 46°33' E 032°23'3 4.7
2016-Apr-28 23:33N 46°33' E 032°19'5 5.4
2016-Apr-28 22:33N 46°32' E 032°11'5 5.3
2016-Apr-28 21:33N 46°32' E 032°03'5 5.4
2016-Apr-28 20:34N 46°34' E 031°56'5 5.4
2016-Apr-28 19:33N 46°35' E 031°48'5 5.4
2016-Apr-28 18:33N 46°35' E 031°41'4 4.0
2016-Apr-28 17:33N 46°36' E 031°35'1 0.7
2016-Apr-28 16:33N 46°37' E 031°35'12 0.9
2016-Apr-28 03:20N 46°35' E 031°18'0 0.3
2016-Apr-28 02:33N 46°35' E 031°18'2 1.6
2016-Apr-28 01:28N 46°35' E 031°21'0 0.5
2016-Apr-28 00:33N 46°36' E 031°20'0 0.0
2016-Apr-27 23:34N 46°36' E 031°20'0 0.0
2016-Apr-27 22:33N 46°36' E 031°20'0 0.0
2016-Apr-27 21:34N 46°36' E 031°20'1 0.5
2016-Apr-27 20:33N 46°35' E 031°21'0 0.0
2016-Apr-27 19:29N 46°35' E 031°21'0 0.0
2016-Apr-27 18:24N 46°35' E 031°21'9 0.3
2016-Apr-26 08:20N 46°35' E 031°34'4 4.6
2016-Apr-26 07:33N 46°35' E 031°39'5 4.6
2016-Apr-26 06:33N 46°36' E 031°45'4 4.0
2016-Apr-26 05:33N 46°37' E 031°51'4 3.9
2016-Apr-26 04:34N 46°39' E 031°56'4 3.8
2016-Apr-26 03:34N 46°43' E 031°56'4 3.6
2016-Apr-26 02:34N 46°46' E 031°53'4 3.6
2016-Apr-26 01:33N 46°49' E 031°55'4 3.9
2016-Apr-26 00:34N 46°52' E 031°58'4 3.7
2016-Apr-25 23:34N 46°55' E 032°01'2 2.0
2016-Apr-25 22:31N 46°57' E 031°59'0 0.2
2016-Apr-25 21:33N 46°57' E 031°59'0 0.0
2016-Apr-25 20:33N 46°57' E 031°59'0 0.1
2016-Apr-25 19:33N 46°57' E 031°59'0 0.0
2016-Apr-25 18:33N 46°57' E 031°59'0 0.1
2016-Apr-25 17:33N 46°57' E 031°59'0 0.1
2016-Apr-25 16:33N 46°57' E 031°59'0 0.2
2016-Apr-25 15:33N 46°57' E 031°59'1 1.2
2016-Apr-25 14:33N 46°56' E 032°00'3 3.5
2016-Apr-25 13:33N 46°53' E 031°59'4 4.3
2016-Apr-25 12:33N 46°49' E 031°55'4 3.9
2016-Apr-25 11:33N 46°46' E 031°53'4 3.8
2016-Apr-25 10:33N 46°42' E 031°56'4 4.0
2016-Apr-25 09:33N 46°38' E 031°57'4 4.0
2016-Apr-25 08:33N 46°35' E 032°00'4 4.0
2016-Apr-25 07:31N 46°32' E 032°04'4 4.1
2016-Apr-25 06:33N 46°32' E 032°10'4 4.3
2016-Apr-25 05:33N 46°33' E 032°16'92 3.4
2016-Apr-24 02:33N 47°27' E 034°06'4 4.3
2016-Apr-24 01:33N 47°29' E 034°12'4 4.2
2016-Apr-24 00:33N 47°31' E 034°17'5 3.9
2016-Apr-23 23:10N 47°33' E 034°25'3 4.1
2016-Apr-23 22:31N 47°34' E 034°28'4 3.9
2016-Apr-23 21:34N 47°34' E 034°34'4 4.2
2016-Apr-23 20:33N 47°33' E 034°39'4 4.1
2016-Apr-23 19:27N 47°31' E 034°46'4 3.9
2016-Apr-23 18:33N 47°32' E 034°51'6 4.1
2016-Apr-23 17:07N 47°34' E 034°59'2 4.1
2016-Apr-23 16:34N 47°35' E 035°02'4 4.3
2016-Apr-23 15:33N 47°38' E 035°06'5 4.7
2016-Apr-23 14:34N 47°43' E 035°08'4 3.6
2016-Apr-23 13:33N 47°46' E 035°09'2 2.0
2016-Apr-23 12:33N 47°48' E 035°09'2 1.6
2016-Apr-23 11:33N 47°49' E 035°08'3 2.9
2016-Apr-23 10:33N 47°52' E 035°05'1 1.4
2016-Apr-23 09:33N 47°53' E 035°06'1 1.5
2016-Apr-23 08:33N 47°52' E 035°05'3 3.2
2016-Apr-23 07:33N 47°49' E 035°08'1 1.2
2016-Apr-23 06:33N 47°48' E 035°09'4 4.3
2016-Apr-23 05:33N 47°52' E 035°05'0 0.4
2016-Apr-23 04:33N 47°52' E 035°06'2 1.5
2016-Apr-23 03:33N 47°54' E 035°06'0 0.0
2016-Apr-23 02:33N 47°54' E 035°06'0 0.0
2016-Apr-23 01:33N 47°54' E 035°06'0 0.0
2016-Apr-23 00:33N 47°54' E 035°06'0 0.2
2016-Apr-22 23:34N 47°53' E 035°06'4 4.1
2016-Apr-22 22:33N 47°58' E 035°07'  
Track history (hours):
 
Tides and Currents Weather Stations Pressure Air Temp Water Temp Dewpoint Dewpoint Depression Visibility Wind Speed Wind Dir Waves Ship Positions

Nibulon 1

Last reported at 2016-May-01 10:16 UTC. Time now 2016-May-01 11:47 UTC.
Position N 48°03' E 035°06'.

Length 38 m; draft 2.6 m.

Type: Tug. MMSI: 272641000.

Date/timePositionNaut miles runAvg speedWind from/ knotsBaromVisibWave heightAir tempDewpointWater temp
2016-May-01 10:16N 48°03' E 035°06'4 5.1
2016-May-01 09:33N 47°59' E 035°08'5 5.4
2016-May-01 08:33N 47°54' E 035°06'2 2.3
2016-May-01 07:33N 47°52' E 035°05'2 2.2
2016-May-01 06:33N 47°50' E 035°07'1 0.7
2016-May-01 05:33N 47°50' E 035°06'2 2.2
2016-May-01 04:33N 47°52' E 035°06'1 0.8
2016-May-01 03:33N 47°52' E 035°05'4 4.4
2016-May-01 02:33N 47°48' E 035°09'0 0.0
2016-May-01 01:33N 47°48' E 035°09'0 0.0
2016-May-01 00:33N 47°48' E 035°09'0 0.0
2016-Apr-30 23:33N 47°48' E 035°09'0 0.0
2016-Apr-30 22:33N 47°48' E 035°09'0 0.0
2016-Apr-30 21:33N 47°48' E 035°09'0 0.0
2016-Apr-30 20:33N 47°48' E 035°09'0 0.0
2016-Apr-30 19:33N 47°48' E 035°09'0 0.0
2016-Apr-30 18:33N 47°48' E 035°09'0 0.0
2016-Apr-30 17:33N 47°48' E 035°09'0 0.2
2016-Apr-30 16:33N 47°48' E 035°10'0 0.0
2016-Apr-30 15:33N 47°48' E 035°10'1 0.9
2016-Apr-30 14:33N 47°48' E 035°10'4 4.5
2016-Apr-30 13:33N 47°43' E 035°09'5 4.7
2016-Apr-30 12:33N 47°39' E 035°06'5 4.8
2016-Apr-30 11:33N 47°35' E 035°02'8 5.2
2016-Apr-30 10:04N 47°32' E 034°51'3 5.4
2016-Apr-30 09:33N 47°31' E 034°48'11 5.2
2016-Apr-30 07:23N 47°35' E 034°32'9 5.1
2016-Apr-30 05:33N 47°32' E 034°18'6 5.6
2016-Apr-30 04:26N 47°28' E 034°10'86 3.2
2016-Apr-29 01:22N 46°35' E 032°30'5 4.6
2016-Apr-29 00:14N 46°33' E 032°23'3 4.7
2016-Apr-28 23:33N 46°33' E 032°19'5 5.4
2016-Apr-28 22:33N 46°32' E 032°11'5 5.3
2016-Apr-28 21:33N 46°32' E 032°03'5 5.4
2016-Apr-28 20:34N 46°34' E 031°56'5 5.4
2016-Apr-28 19:33N 46°35' E 031°48'5 5.4
2016-Apr-28 18:33N 46°35' E 031°41'4 4.0
2016-Apr-28 17:33N 46°36' E 031°35'1 0.7
2016-Apr-28 16:33N 46°37' E 031°35'12 0.9
2016-Apr-28 03:20N 46°35' E 031°18'0 0.3
2016-Apr-28 02:33N 46°35' E 031°18'2 1.6
2016-Apr-28 01:28N 46°35' E 031°21'0 0.5
2016-Apr-28 00:33N 46°36' E 031°20'0 0.0
2016-Apr-27 23:34N 46°36' E 031°20'0 0.0
2016-Apr-27 22:33N 46°36' E 031°20'0 0.0
2016-Apr-27 21:34N 46°36' E 031°20'1 0.5
2016-Apr-27 20:33N 46°35' E 031°21'0 0.0
2016-Apr-27 19:29N 46°35' E 031°21'0 0.0
2016-Apr-27 18:24N 46°35' E 031°21'9 0.3
2016-Apr-26 08:20N 46°35' E 031°34'4 4.6
2016-Apr-26 07:33N 46°35' E 031°39'5 4.6
2016-Apr-26 06:33N 46°36' E 031°45'4 4.0
2016-Apr-26 05:33N 46°37' E 031°51'4 3.9
2016-Apr-26 04:34N 46°39' E 031°56'4 3.8
2016-Apr-26 03:34N 46°43' E 031°56'4 3.6
2016-Apr-26 02:34N 46°46' E 031°53'4 3.6
2016-Apr-26 01:33N 46°49' E 031°55'4 3.9
2016-Apr-26 00:34N 46°52' E 031°58'4 3.7
2016-Apr-25 23:34N 46°55' E 032°01'2 2.0
2016-Apr-25 22:31N 46°57' E 031°59'0 0.2
2016-Apr-25 21:33N 46°57' E 031°59'0 0.0
2016-Apr-25 20:33N 46°57' E 031°59'0 0.1
2016-Apr-25 19:33N 46°57' E 031°59'0 0.0
2016-Apr-25 18:33N 46°57' E 031°59'0 0.1
2016-Apr-25 17:33N 46°57' E 031°59'0 0.1
2016-Apr-25 16:33N 46°57' E 031°59'0 0.2
2016-Apr-25 15:33N 46°57' E 031°59'1 1.2
2016-Apr-25 14:33N 46°56' E 032°00'3 3.5
2016-Apr-25 13:33N 46°53' E 031°59'4 4.3
2016-Apr-25 12:33N 46°49' E 031°55'4 3.9
2016-Apr-25 11:33N 46°46' E 031°53'4 3.8
2016-Apr-25 10:33N 46°42' E 031°56'4 4.0
2016-Apr-25 09:33N 46°38' E 031°57'4 4.0
2016-Apr-25 08:33N 46°35' E 032°00'4 4.0
2016-Apr-25 07:31N 46°32' E 032°04'4 4.1
2016-Apr-25 06:33N 46°32' E 032°10'4 4.3
2016-Apr-25 05:33N 46°33' E 032°16'92 3.4
2016-Apr-24 02:33N 47°27' E 034°06'4 4.3
2016-Apr-24 01:33N 47°29' E 034°12'4 4.2
2016-Apr-24 00:33N 47°31' E 034°17'5 3.9
2016-Apr-23 23:10N 47°33' E 034°25'3 4.1
2016-Apr-23 22:31N 47°34' E 034°28'4 3.9
2016-Apr-23 21:34N 47°34' E 034°34'4 4.2
2016-Apr-23 20:33N 47°33' E 034°39'4 4.1
2016-Apr-23 19:27N 47°31' E 034°46'4 3.9
2016-Apr-23 18:33N 47°32' E 034°51'6 4.1
2016-Apr-23 17:07N 47°34' E 034°59'2 4.1
2016-Apr-23 16:34N 47°35' E 035°02'4 4.3
2016-Apr-23 15:33N 47°38' E 035°06'5 4.7
2016-Apr-23 14:34N 47°43' E 035°08'4 3.6
2016-Apr-23 13:33N 47°46' E 035°09'2 2.0
2016-Apr-23 12:33N 47°48' E 035°09'2 1.6
2016-Apr-23 11:33N 47°49' E 035°08'3 2.9
2016-Apr-23 10:33N 47°52' E 035°05'1 1.4
2016-Apr-23 09:33N 47°53' E 035°06'1 1.5
2016-Apr-23 08:33N 47°52' E 035°05'3 3.2
2016-Apr-23 07:33N 47°49' E 035°08'1 1.2
2016-Apr-23 06:33N 47°48' E 035°09'4 4.3
2016-Apr-23 05:33N 47°52' E 035°05'0 0.4
2016-Apr-23 04:33N 47°52' E 035°06'2 1.5
2016-Apr-23 03:33N 47°54' E 035°06'0 0.0
2016-Apr-23 02:33N 47°54' E 035°06'0 0.0
2016-Apr-23 01:33N 47°54' E 035°06'0 0.0
2016-Apr-23 00:33N 47°54' E 035°06'0 0.2
2016-Apr-22 23:34N 47°53' E 035°06'4 4.1
2016-Apr-22 22:33N 47°58' E 035°07'  

Dump ship's entire track history